createdAt,value
2023-06-07T04:03:10.089Z,98826.59
2023-06-07T04:07:23.981Z,98814.59
2023-06-07T04:11:35.769Z,98815.41
2023-06-07T04:15:47.610Z,98817.13
2023-06-07T04:19:59.530Z,98811.63
2023-06-07T04:24:15.053Z,98812.16
2023-06-07T04:28:28.845Z,98822.91
2023-06-07T04:32:48.316Z,98822.47
2023-06-07T04:37:04.997Z,98825.16
2023-06-07T04:41:17.727Z,98813.44
2023-06-07T04:45:35.157Z,98813.69
2023-06-07T04:49:54.302Z,98816.56
2023-06-07T04:54:06.993Z,98822.16
2023-06-07T04:58:26.386Z,98813.38
2023-06-07T05:02:42.471Z,98818.97
2023-06-07T05:06:59.782Z,98817.00
2023-06-07T05:11:15.934Z,98821.72
2023-06-07T05:15:28.455Z,98802.34
2023-06-07T05:19:40.126Z,98807.91
2023-06-07T05:23:51.881Z,98792.13
2023-06-07T05:28:12.991Z,98803.84
2023-06-07T05:32:29.462Z,98802.47
2023-06-07T05:36:41.746Z,98804.25
2023-06-07T05:40:57.741Z,98799.16
2023-06-07T05:45:09.612Z,98805.38
2023-06-07T05:49:21.261Z,98800.84
2023-06-07T05:53:32.964Z,98795.22
2023-06-07T05:57:44.618Z,98794.13
2023-06-07T06:01:56.226Z,98789.25
2023-06-07T06:06:19.556Z,98801.56
2023-06-07T06:10:33.155Z,98794.28
2023-06-07T06:14:47.235Z,98795.91
2023-06-07T06:18:58.780Z,98796.81
2023-06-07T06:23:10.470Z,98798.66
2023-06-07T06:27:22.143Z,98798.66
2023-06-07T06:31:33.937Z,98809.09
2023-06-07T06:35:45.578Z,98805.59
2023-06-07T06:39:57.140Z,98809.34
2023-06-07T06:44:09.594Z,98814.94
2023-06-07T06:48:21.477Z,98823.69
2023-06-07T06:52:33.111Z,98820.22
2023-06-07T06:56:44.697Z,98823.22
2023-06-07T07:00:56.248Z,98829.78
2023-06-07T07:05:08.355Z,98829.25
2023-06-07T07:09:20.625Z,98834.69
2023-06-07T07:13:32.204Z,98828.69
2023-06-07T07:17:49.424Z,98831.84
2023-06-07T07:22:01.098Z,98829.53
2023-06-07T07:26:12.678Z,98834.44
2023-06-07T07:30:24.319Z,98831.41
2023-06-07T07:34:36.027Z,98831.78
2023-06-07T07:38:47.652Z,98833.22
2023-06-07T07:42:59.502Z,98829.63
2023-06-07T07:47:11.836Z,98822.66
2023-06-07T07:51:23.403Z,98827.28
2023-06-07T07:55:36.161Z,98821.50
2023-06-07T07:59:47.805Z,98825.66
2023-06-07T08:04:00.365Z,98819.09
2023-06-07T08:08:11.989Z,98830.66
2023-06-07T08:12:23.530Z,98822.97
2023-06-07T08:16:35.295Z,98822.78
2023-06-07T08:20:46.945Z,98817.81
2023-06-07T08:24:58.527Z,98812.94
2023-06-07T08:29:10.096Z,98809.88
2023-06-07T08:33:21.655Z,98799.97
2023-06-07T08:37:33.353Z,98806.06
2023-06-07T08:41:44.927Z,98805.72
2023-06-07T08:45:57.222Z,98799.41
2023-06-07T08:50:15.156Z,98809.25
2023-06-07T08:54:28.839Z,98806.81
2023-06-07T08:58:42.075Z,98807.94
2023-06-07T09:02:54.206Z,98803.31
2023-06-07T09:07:07.508Z,98804.19
2023-06-07T09:11:19.515Z,98814.75
2023-06-07T09:15:34.200Z,98811.97
2023-06-07T09:19:45.984Z,98804.63
2023-06-07T09:24:01.026Z,98803.22
2023-06-07T09:28:14.691Z,98797.94
2023-06-07T09:32:26.348Z,98805.72
2023-06-07T09:36:49.777Z,98794.75
2023-06-07T09:41:03.569Z,98802.63
2023-06-07T09:45:17.077Z,98805.63
2023-06-07T09:49:33.255Z,98784.00
2023-06-07T09:53:58.588Z,98799.72
2023-06-07T09:58:23.825Z,98775.53
2023-06-07T10:02:38.872Z,98789.22
2023-06-07T10:06:55.784Z,98778.06
2023-06-07T10:11:07.800Z,98775.31
2023-06-07T10:15:26.925Z,98774.91
2023-06-07T10:19:43.943Z,98773.22
2023-06-07T10:23:58.702Z,98759.38
2023-06-07T10:28:33.364Z,98769.75
2023-06-07T10:32:46.205Z,98762.63
2023-06-07T10:36:59.856Z,98755.00
2023-06-07T10:41:14.832Z,98757.44
2023-06-07T10:45:26.987Z,98758.31
2023-06-07T10:49:38.736Z,98755.09
2023-06-07T10:53:55.874Z,98753.47
2023-06-07T10:58:26.451Z,98754.78
2023-06-07T11:02:39.008Z,98739.34
2023-06-07T11:07:20.084Z,98739.16
2023-06-07T11:11:41.234Z,98733.22
2023-06-07T11:15:52.936Z,98727.34
2023-06-07T11:20:07.070Z,98725.19
2023-06-07T11:24:19.816Z,98727.28
2023-06-07T11:28:33.182Z,98735.09
2023-06-07T11:32:46.137Z,98726.31
2023-06-07T11:37:09.397Z,98721.75
2023-06-07T11:41:24.633Z,98719.19
2023-06-07T11:45:37.140Z,98705.66
2023-06-07T11:49:48.718Z,98706.75
2023-06-07T11:54:00.937Z,98717.00
2023-06-07T11:58:12.579Z,98720.50
2023-06-07T12:02:24.706Z,98717.28
2023-06-07T12:06:36.996Z,98711.78
2023-06-07T12:10:55.877Z,98704.84
2023-06-07T12:15:07.986Z,98704.69
2023-06-07T12:19:20.243Z,98688.97
2023-06-07T12:23:32.872Z,98678.44
2023-06-07T12:27:48.383Z,98680.09
2023-06-07T12:32:02.132Z,98668.38
2023-06-07T12:36:13.759Z,98664.91
2023-06-07T12:40:26.018Z,98664.81
2023-06-07T12:44:38.310Z,98660.22
2023-06-07T12:48:49.951Z,98659.94
2023-06-07T12:53:02.265Z,98658.53
2023-06-07T12:57:13.907Z,98641.34
2023-06-07T13:01:25.699Z,98642.66
2023-06-07T13:05:37.456Z,98631.16
2023-06-07T13:09:50.005Z,98630.34
2023-06-07T13:14:01.657Z,98636.19
2023-06-07T13:18:13.978Z,98629.28
2023-06-07T13:22:25.893Z,98633.25
2023-06-07T13:26:37.449Z,98630.59
2023-06-07T13:30:49.038Z,98624.28
2023-06-07T13:35:00.614Z,98628.47
2023-06-07T13:39:12.410Z,98620.75
2023-06-07T13:43:35.386Z,98618.66
2023-06-07T13:47:56.157Z,98617.22
2023-06-07T13:52:08.329Z,98610.19
2023-06-07T13:56:19.938Z,98613.53
2023-06-07T14:00:31.988Z,98601.06
2023-06-07T14:04:44.263Z,98594.53
2023-06-07T14:08:56.329Z,98585.22
2023-06-07T14:13:07.962Z,98590.34
2023-06-07T14:17:19.615Z,98591.41
2023-06-07T14:21:33.867Z,98579.63
2023-06-07T14:25:45.430Z,98582.28
2023-06-07T14:29:57.056Z,98576.41
2023-06-07T14:34:08.645Z,98570.56
2023-06-07T14:38:20.399Z,98574.16
2023-06-07T14:42:32.491Z,98573.69
2023-06-07T14:46:44.060Z,98579.41
2023-06-07T14:50:55.814Z,98585.50
2023-06-07T14:55:07.922Z,98587.63
2023-06-07T14:59:19.633Z,98584.19
2023-06-07T15:03:31.277Z,98570.56
2023-06-07T15:07:42.923Z,98569.47
2023-06-07T15:11:54.514Z,98561.13
2023-06-07T15:16:06.156Z,98558.50
2023-06-07T15:20:17.769Z,98562.34
2023-06-07T15:24:29.337Z,98551.25
2023-06-07T15:28:40.968Z,98549.81
2023-06-07T15:32:53.122Z,98556.09
2023-06-07T15:37:07.182Z,98551.31
2023-06-07T15:41:18.800Z,98558.78
2023-06-07T15:45:30.433Z,98558.00
2023-06-07T15:49:42.097Z,98549.41
2023-06-07T15:53:53.715Z,98547.19
2023-06-07T15:58:05.290Z,98542.88
2023-06-07T16:02:19.376Z,98542.66
2023-06-07T16:06:31.202Z,98546.66
2023-06-07T16:10:43.205Z,98533.78
2023-06-07T16:14:54.871Z,98546.66
2023-06-07T16:19:07.347Z,98536.78
2023-06-07T16:23:19.731Z,98536.88
2023-06-07T16:27:31.886Z,98543.03
2023-06-07T16:31:43.628Z,98533.97
2023-06-07T16:35:55.277Z,98530.22
2023-06-07T16:40:07.594Z,98537.94
2023-06-07T16:44:21.899Z,98532.34
2023-06-07T16:48:33.461Z,98527.25
2023-06-07T16:52:45.074Z,98532.06
2023-06-07T16:56:56.668Z,98521.06
2023-06-07T17:01:09.798Z,98525.59
2023-06-07T17:05:21.402Z,98514.34
2023-06-07T17:09:33.130Z,98520.81
2023-06-07T17:13:44.999Z,98520.56
2023-06-07T17:17:56.672Z,98521.13
2023-06-07T17:22:08.335Z,98523.81
2023-06-07T17:26:19.928Z,98526.75
2023-06-07T17:30:31.681Z,98529.91
2023-06-07T17:34:43.413Z,98522.19
2023-06-07T17:38:55.975Z,98529.16
2023-06-07T17:43:21.756Z,98537.94
2023-06-07T17:47:49.658Z,98527.22
2023-06-07T17:52:13.465Z,98531.19
2023-06-07T17:56:33.698Z,98531.72
2023-06-07T18:00:46.453Z,98527.41
2023-06-07T18:04:58.216Z,98525.50
2023-06-07T18:09:09.912Z,98528.69
2023-06-07T18:13:21.551Z,98534.84
2023-06-07T18:17:33.175Z,98544.09
2023-06-07T18:21:44.737Z,98542.88
2023-06-07T18:26:01.035Z,98549.09
2023-06-07T18:30:12.724Z,98552.44
2023-06-07T18:34:24.407Z,98553.59
2023-06-07T18:38:36.368Z,98546.63
2023-06-07T18:42:47.912Z,98545.84
2023-06-07T18:46:59.539Z,98554.72
2023-06-07T18:51:11.565Z,98552.25
2023-06-07T18:55:23.185Z,98556.16
2023-06-07T18:59:35.255Z,98548.53
2023-06-07T19:03:47.670Z,98541.69
2023-06-07T19:08:00.017Z,98553.22
2023-06-07T19:12:11.791Z,98541.22
2023-06-07T19:16:23.434Z,98540.84
2023-06-07T19:20:35.020Z,98552.75
2023-06-07T19:24:46.763Z,98550.97
2023-06-07T19:28:59.176Z,98556.16
2023-06-07T19:33:11.485Z,98564.41
2023-06-07T19:37:23.424Z,98567.06
2023-06-07T19:41:34.990Z,98582.72
2023-06-07T19:45:46.546Z,98584.56
2023-06-07T19:49:58.533Z,98584.91
2023-06-07T19:54:10.415Z,98589.09
2023-06-07T19:58:21.998Z,98593.75
2023-06-07T20:02:34.608Z,98609.31
2023-06-07T20:06:46.294Z,98611.19
2023-06-07T20:10:57.859Z,98617.91
2023-06-07T20:15:11.253Z,98627.16
2023-06-07T20:19:22.971Z,98620.72
2023-06-07T20:23:34.589Z,98635.59
2023-06-07T20:27:46.201Z,98626.97
2023-06-07T20:31:57.831Z,98635.72
2023-06-07T20:36:09.690Z,98640.09
2023-06-07T20:40:21.485Z,98638.22
2023-06-07T20:44:47.784Z,98628.06
2023-06-07T20:49:05.919Z,98635.97
2023-06-07T20:53:17.588Z,98639.53
2023-06-07T20:57:31.030Z,98639.97
2023-06-07T21:01:42.619Z,98642.16
2023-06-07T21:05:54.196Z,98641.88
2023-06-07T21:10:06.648Z,98644.09
2023-06-07T21:14:18.598Z,98633.91
2023-06-07T21:18:30.418Z,98633.88
2023-06-07T21:22:42.031Z,98642.25
2023-06-07T21:26:53.619Z,98636.00
